Laceys Spring, Alabama
Current Conditions -  °F | °C
As of 11:53 AM on Tuesday 21 Oct 2014 (Local Time) from KHSV Reporting Station
Few Clouds Few Clouds  
Wind Chill: 72°   Ceiling: Unl
Heat Index: 72°   Visibility: 10mi
Dew Point: 49°   Wind: 6mph
Humidity: 44%   Direction: 340°NNW
Pressure: 30.06"   Gusts: NA
Location:  34.53°N, 86.6°W
Report Text: KHSV 211653Z 34005KT 10SM FEW045 22/09 A3006 RMK AO2 SLP177 T02220094 $
Loading
Personal Weather Stations






























Interactive Weather Map New forecast layout! Learn more

10-Day Weather Forecast

Advertisements
Track Severe Weather on mobile